sensor_id;sensor_type;location;lat;lon;timestamp;temperature;humidity
40255;DHT22;25973;52.368;4.940;2023-06-10T00:00:54;21.00;99.90
40255;DHT22;25973;52.368;4.940;2023-06-10T00:03:21;21.00;99.90
40255;DHT22;25973;52.368;4.940;2023-06-10T00:05:49;21.00;99.90
40255;DHT22;25973;52.368;4.940;2023-06-10T00:08:14;20.90;99.90
40255;DHT22;25973;52.368;4.940;2023-06-10T00:10:41;20.90;99.90
40255;DHT22;25973;52.368;4.940;2023-06-10T00:13:07;20.80;99.90
40255;DHT22;25973;52.368;4.940;2023-06-10T00:15:36;20.80;99.90
40255;DHT22;25973;52.368;4.940;2023-06-10T00:18:03;20.80;99.90
40255;DHT22;25973;52.368;4.940;2023-06-10T00:20:28;20.80;99.90
40255;DHT22;25973;52.368;4.940;2023-06-10T00:22:55;20.70;99.90
40255;DHT22;25973;52.368;4.940;2023-06-10T00:25:22;20.70;99.90
40255;DHT22;25973;52.368;4.940;2023-06-10T00:27:51;20.70;99.90
40255;DHT22;25973;52.368;4.940;2023-06-10T00:30:16;20.70;99.90
40255;DHT22;25973;52.368;4.940;2023-06-10T00:32:42;20.80;99.90
40255;DHT22;25973;52.368;4.940;2023-06-10T00:35:07;20.70;99.90
40255;DHT22;25973;52.368;4.940;2023-06-10T00:37:33;20.70;99.90
40255;DHT22;25973;52.368;4.940;2023-06-10T00:40:03;20.70;99.90
40255;DHT22;25973;52.368;4.940;2023-06-10T00:42:29;20.60;99.90
40255;DHT22;25973;52.368;4.940;2023-06-10T00:44:55;20.60;99.90
40255;DHT22;25973;52.368;4.940;2023-06-10T00:47:21;20.60;99.90
40255;DHT22;25973;52.368;4.940;2023-06-10T00:49:47;20.60;99.90
40255;DHT22;25973;52.368;4.940;2023-06-10T00:52:14;20.50;99.90
40255;DHT22;25973;52.368;4.940;2023-06-10T00:54:41;20.50;99.90
40255;DHT22;25973;52.368;4.940;2023-06-10T00:57:07;20.50;99.90
40255;DHT22;25973;52.368;4.940;2023-06-10T00:59:33;20.50;99.90
40255;DHT22;25973;52.368;4.940;2023-06-10T01:01:59;20.40;99.90
40255;DHT22;25973;52.368;4.940;2023-06-10T01:04:26;20.40;99.90
40255;DHT22;25973;52.368;4.940;2023-06-10T01:07:10;20.40;99.90
40255;DHT22;25973;52.368;4.940;2023-06-10T01:12:37;20.30;99.90
40255;DHT22;25973;52.368;4.940;2023-06-10T01:15:05;20.30;99.90
40255;DHT22;25973;52.368;4.940;2023-06-10T01:17:31;20.20;99.90
40255;DHT22;25973;52.368;4.940;2023-06-10T01:19:57;20.30;99.90
40255;DHT22;25973;52.368;4.940;2023-06-10T01:22:24;20.20;99.90
40255;DHT22;25973;52.368;4.940;2023-06-10T01:24:51;20.20;99.90
40255;DHT22;25973;52.368;4.940;2023-06-10T01:27:19;20.20;99.90
40255;DHT22;25973;52.368;4.940;2023-06-10T01:29:53;20.20;99.90
40255;DHT22;25973;52.368;4.940;2023-06-10T01:32:32;20.20;99.90
40255;DHT22;25973;52.368;4.940;2023-06-10T01:35:00;20.20;99.90
40255;DHT22;25973;52.368;4.940;2023-06-10T01:37:26;20.20;99.90
40255;DHT22;25973;52.368;4.940;2023-06-10T01:39:55;20.20;99.90
40255;DHT22;25973;52.368;4.940;2023-06-10T01:42:23;20.20;99.90
40255;DHT22;25973;52.368;4.940;2023-06-10T01:44:49;20.10;99.90
40255;DHT22;25973;52.368;4.940;2023-06-10T01:47:14;20.10;99.90
40255;DHT22;25973;52.368;4.940;2023-06-10T01:49:40;20.10;99.90
40255;DHT22;25973;52.368;4.940;2023-06-10T01:52:06;20.00;99.90
40255;DHT22;25973;52.368;4.940;2023-06-10T01:54:32;20.00;99.90
40255;DHT22;25973;52.368;4.940;2023-06-10T01:57:00;20.00;99.90
40255;DHT22;25973;52.368;4.940;2023-06-10T01:59:26;19.90;99.90
40255;DHT22;25973;52.368;4.940;2023-06-10T02:01:51;19.90;99.90
40255;DHT22;25973;52.368;4.940;2023-06-10T02:04:17;20.00;99.90
40255;DHT22;25973;52.368;4.940;2023-06-10T02:06:43;19.90;99.90
40255;DHT22;25973;52.368;4.940;2023-06-10T02:09:08;19.90;99.90
40255;DHT22;25973;52.368;4.940;2023-06-10T02:11:34;19.90;99.90
40255;DHT22;25973;52.368;4.940;2023-06-10T02:13:59;19.80;99.90
40255;DHT22;25973;52.368;4.940;2023-06-10T02:16:25;19.80;99.90
40255;DHT22;25973;52.368;4.940;2023-06-10T02:18:52;19.70;99.90
40255;DHT22;25973;52.368;4.940;2023-06-10T02:21:17;19.70;99.90
40255;DHT22;25973;52.368;4.940;2023-06-10T02:23:43;19.60;99.90
40255;DHT22;25973;52.368;4.940;2023-06-10T02:26:08;19.60;99.90
40255;DHT22;25973;52.368;4.940;2023-06-10T02:28:34;19.50;99.90
40255;DHT22;25973;52.368;4.940;2023-06-10T02:30:59;19.50;99.90
40255;DHT22;25973;52.368;4.940;2023-06-10T02:33:26;19.50;99.90
40255;DHT22;25973;52.368;4.940;2023-06-10T02:35:52;19.40;99.90
40255;DHT22;25973;52.368;4.940;2023-06-10T02:38:18;19.40;99.90
40255;DHT22;25973;52.368;4.940;2023-06-10T02:40:43;19.30;99.90
40255;DHT22;25973;52.368;4.940;2023-06-10T02:43:09;19.30;99.90
40255;DHT22;25973;52.368;4.940;2023-06-10T02:45:34;19.30;99.90
40255;DHT22;25973;52.368;4.940;2023-06-10T02:48:00;19.20;99.90
40255;DHT22;25973;52.368;4.940;2023-06-10T02:50:25;19.30;99.90
40255;DHT22;25973;52.368;4.940;2023-06-10T02:52:51;19.30;99.90
40255;DHT22;25973;52.368;4.940;2023-06-10T02:55:16;19.30;99.90
40255;DHT22;25973;52.368;4.940;2023-06-10T02:57:42;19.20;99.90
40255;DHT22;25973;52.368;4.940;2023-06-10T03:00:08;19.20;99.90
40255;DHT22;25973;52.368;4.940;2023-06-10T03:02:39;19.20;99.90
40255;DHT22;25973;52.368;4.940;2023-06-10T03:05:06;19.20;99.90
40255;DHT22;25973;52.368;4.940;2023-06-10T03:07:35;19.20;99.90
40255;DHT22;25973;52.368;4.940;2023-06-10T03:10:01;19.10;99.90
40255;DHT22;25973;52.368;4.940;2023-06-10T03:12:27;19.00;99.90
40255;DHT22;25973;52.368;4.940;2023-06-10T03:14:52;19.00;99.90
40255;DHT22;25973;52.368;4.940;2023-06-10T03:17:18;19.00;99.90
40255;DHT22;25973;52.368;4.940;2023-06-10T03:19:43;19.00;99.90
40255;DHT22;25973;52.368;4.940;2023-06-10T03:22:11;19.00;99.90
40255;DHT22;25973;52.368;4.940;2023-06-10T03:24:36;19.00;99.90
40255;DHT22;25973;52.368;4.940;2023-06-10T03:27:11;19.00;99.90
40255;DHT22;25973;52.368;4.940;2023-06-10T03:29:37;19.10;99.90
40255;DHT22;25973;52.368;4.940;2023-06-10T03:32:03;19.00;99.90
40255;DHT22;25973;52.368;4.940;2023-06-10T03:34:29;19.00;99.90
40255;DHT22;25973;52.368;4.940;2023-06-10T03:36:55;19.00;99.90
40255;DHT22;25973;52.368;4.940;2023-06-10T03:39:22;18.90;99.90
40255;DHT22;25973;52.368;4.940;2023-06-10T03:41:49;19.00;99.90
40255;DHT22;25973;52.368;4.940;2023-06-10T03:44:14;18.90;99.90
40255;DHT22;25973;52.368;4.940;2023-06-10T03:46:40;18.90;99.90
40255;DHT22;25973;52.368;4.940;2023-06-10T03:49:06;18.90;99.90
40255;DHT22;25973;52.368;4.940;2023-06-10T03:51:32;19.00;99.90
40255;DHT22;25973;52.368;4.940;2023-06-10T03:53:57;19.00;99.90
40255;DHT22;25973;52.368;4.940;2023-06-10T03:56:23;18.90;99.90
40255;DHT22;25973;52.368;4.940;2023-06-10T03:58:48;19.00;99.90
40255;DHT22;25973;52.368;4.940;2023-06-10T04:01:14;19.00;99.90
40255;DHT22;25973;52.368;4.940;2023-06-10T04:03:40;19.00;99.90
40255;DHT22;25973;52.368;4.940;2023-06-10T04:06:07;19.00;99.90
40255;DHT22;25973;52.368;4.940;2023-06-10T04:08:33;19.00;99.90
40255;DHT22;25973;52.368;4.940;2023-06-10T04:10:58;19.00;99.90
40255;DHT22;25973;52.368;4.940;2023-06-10T04:13:24;19.00;99.90
40255;DHT22;25973;52.368;4.940;2023-06-10T04:15:50;18.90;99.90
40255;DHT22;25973;52.368;4.940;2023-06-10T04:18:16;18.90;99.90
40255;DHT22;25973;52.368;4.940;2023-06-10T04:20:41;18.90;99.90
40255;DHT22;25973;52.368;4.940;2023-06-10T04:23:07;18.90;99.90
40255;DHT22;25973;52.368;4.940;2023-06-10T04:25:33;19.00;99.90
40255;DHT22;25973;52.368;4.940;2023-06-10T04:27:58;18.90;99.90
40255;DHT22;25973;52.368;4.940;2023-06-10T04:30:24;18.90;99.90
40255;DHT22;25973;52.368;4.940;2023-06-10T04:32:49;19.00;99.90
40255;DHT22;25973;52.368;4.940;2023-06-10T04:35:15;19.00;99.90
40255;DHT22;25973;52.368;4.940;2023-06-10T04:37:41;19.00;99.90
40255;DHT22;25973;52.368;4.940;2023-06-10T04:40:08;19.00;99.90
40255;DHT22;25973;52.368;4.940;2023-06-10T04:42:34;18.90;99.90
40255;DHT22;25973;52.368;4.940;2023-06-10T04:45:00;19.00;99.90
40255;DHT22;25973;52.368;4.940;2023-06-10T04:47:26;19.00;99.90
40255;DHT22;25973;52.368;4.940;2023-06-10T04:49:52;19.00;99.90
40255;DHT22;25973;52.368;4.940;2023-06-10T04:52:17;19.00;99.90
40255;DHT22;25973;52.368;4.940;2023-06-10T04:54:43;19.00;99.90
40255;DHT22;25973;52.368;4.940;2023-06-10T04:57:09;19.00;99.90
40255;DHT22;25973;52.368;4.940;2023-06-10T04:59:36;19.00;99.90
40255;DHT22;25973;52.368;4.940;2023-06-10T05:02:04;19.00;99.90
40255;DHT22;25973;52.368;4.940;2023-06-10T05:04:30;19.00;99.90
40255;DHT22;25973;52.368;4.940;2023-06-10T05:06:55;19.10;99.90
40255;DHT22;25973;52.368;4.940;2023-06-10T05:09:21;19.10;99.90
40255;DHT22;25973;52.368;4.940;2023-06-10T05:11:47;19.20;99.90
40255;DHT22;25973;52.368;4.940;2023-06-10T05:14:13;19.30;99.90
40255;DHT22;25973;52.368;4.940;2023-06-10T05:16:38;19.30;99.90
40255;DHT22;25973;52.368;4.940;2023-06-10T05:19:04;19.40;99.90
40255;DHT22;25973;52.368;4.940;2023-06-10T05:21:30;19.40;99.90
40255;DHT22;25973;52.368;4.940;2023-06-10T05:23:55;19.50;99.90
40255;DHT22;25973;52.368;4.940;2023-06-10T05:26:21;19.50;99.90
40255;DHT22;25973;52.368;4.940;2023-06-10T05:28:47;19.60;99.90
40255;DHT22;25973;52.368;4.940;2023-06-10T05:31:13;19.60;99.90
40255;DHT22;25973;52.368;4.940;2023-06-10T05:33:39;19.60;99.90
40255;DHT22;25973;52.368;4.940;2023-06-10T05:36:05;19.70;99.90
40255;DHT22;25973;52.368;4.940;2023-06-10T05:38:31;19.70;99.90
40255;DHT22;25973;52.368;4.940;2023-06-10T05:40:56;19.70;99.90
40255;DHT22;25973;52.368;4.940;2023-06-10T05:43:22;19.80;99.90
40255;DHT22;25973;52.368;4.940;2023-06-10T05:45:48;19.80;99.90
40255;DHT22;25973;52.368;4.940;2023-06-10T05:48:13;19.90;99.90
40255;DHT22;25973;52.368;4.940;2023-06-10T05:50:39;20.00;99.90
40255;DHT22;25973;52.368;4.940;2023-06-10T05:53:07;20.00;99.90
40255;DHT22;25973;52.368;4.940;2023-06-10T05:55:41;20.10;99.90
40255;DHT22;25973;52.368;4.940;2023-06-10T05:58:06;20.10;99.90
40255;DHT22;25973;52.368;4.940;2023-06-10T06:00:32;20.10;99.90
40255;DHT22;25973;52.368;4.940;2023-06-10T06:02:57;20.20;99.90
40255;DHT22;25973;52.368;4.940;2023-06-10T06:05:24;20.20;99.90
40255;DHT22;25973;52.368;4.940;2023-06-10T06:07:49;20.30;99.90
40255;DHT22;25973;52.368;4.940;2023-06-10T06:10:17;20.40;99.90
40255;DHT22;25973;52.368;4.940;2023-06-10T06:12:42;20.60;99.90
40255;DHT22;25973;52.368;4.940;2023-06-10T06:15:09;20.80;99.90
40255;DHT22;25973;52.368;4.940;2023-06-10T06:17:35;21.00;99.90
40255;DHT22;25973;52.368;4.940;2023-06-10T06:20:02;21.20;99.90
40255;DHT22;25973;52.368;4.940;2023-06-10T06:22:27;21.50;99.90
40255;DHT22;25973;52.368;4.940;2023-06-10T06:24:53;22.10;99.90
40255;DHT22;25973;52.368;4.940;2023-06-10T06:27:18;22.70;99.90
40255;DHT22;25973;52.368;4.940;2023-06-10T06:29:44;23.50;99.90
40255;DHT22;25973;52.368;4.940;2023-06-10T06:32:09;24.10;99.90
40255;DHT22;25973;52.368;4.940;2023-06-10T06:34:35;24.70;99.90
40255;DHT22;25973;52.368;4.940;2023-06-10T06:37:00;25.30;99.90
40255;DHT22;25973;52.368;4.940;2023-06-10T06:39:26;26.10;99.90
40255;DHT22;25973;52.368;4.940;2023-06-10T06:41:51;26.90;99.90
40255;DHT22;25973;52.368;4.940;2023-06-10T06:44:17;27.70;98.80
40255;DHT22;25973;52.368;4.940;2023-06-10T06:46:42;28.40;97.50
40255;DHT22;25973;52.368;4.940;2023-06-10T06:49:09;29.10;96.50
40255;DHT22;25973;52.368;4.940;2023-06-10T06:51:34;29.40;95.80
40255;DHT22;25973;52.368;4.940;2023-06-10T06:54:00;29.70;95.40
40255;DHT22;25973;52.368;4.940;2023-06-10T06:56:26;29.80;95.10
40255;DHT22;25973;52.368;4.940;2023-06-10T06:58:53;29.80;95.00
40255;DHT22;25973;52.368;4.940;2023-06-10T07:01:19;30.40;94.40
40255;DHT22;25973;52.368;4.940;2023-06-10T07:03:44;31.10;93.60
40255;DHT22;25973;52.368;4.940;2023-06-10T07:06:10;31.60;93.00
40255;DHT22;25973;52.368;4.940;2023-06-10T07:08:35;32.00;93.00
40255;DHT22;25973;52.368;4.940;2023-06-10T07:11:01;32.40;92.20
40255;DHT22;25973;52.368;4.940;2023-06-10T07:13:27;32.40;91.60
40255;DHT22;25973;52.368;4.940;2023-06-10T07:15:52;32.50;91.70
40255;DHT22;25973;52.368;4.940;2023-06-10T07:18:18;32.90;91.60
40255;DHT22;25973;52.368;4.940;2023-06-10T07:20:44;33.70;91.00
40255;DHT22;25973;52.368;4.940;2023-06-10T07:23:09;33.70;90.50
40255;DHT22;25973;52.368;4.940;2023-06-10T07:25:35;33.80;90.60
40255;DHT22;25973;52.368;4.940;2023-06-10T07:28:01;33.50;89.90
40255;DHT22;25973;52.368;4.940;2023-06-10T07:30:27;33.40;90.20
40255;DHT22;25973;52.368;4.940;2023-06-10T07:32:53;34.00;89.30
40255;DHT22;25973;52.368;4.940;2023-06-10T07:35:19;34.00;89.00
40255;DHT22;25973;52.368;4.940;2023-06-10T07:37:44;33.90;89.50
40255;DHT22;25973;52.368;4.940;2023-06-10T07:40:10;34.20;88.70
40255;DHT22;25973;52.368;4.940;2023-06-10T07:42:36;34.20;88.30
40255;DHT22;25973;52.368;4.940;2023-06-10T07:45:03;33.90;88.40
40255;DHT22;25973;52.368;4.940;2023-06-10T07:47:30;34.20;88.70
40255;DHT22;25973;52.368;4.940;2023-06-10T07:49:55;34.70;87.60
40255;DHT22;25973;52.368;4.940;2023-06-10T07:52:21;35.20;87.50
40255;DHT22;25973;52.368;4.940;2023-06-10T07:54:47;35.10;87.20
40255;DHT22;25973;52.368;4.940;2023-06-10T07:57:12;35.30;87.20
40255;DHT22;25973;52.368;4.940;2023-06-10T07:59:38;35.40;86.50
40255;DHT22;25973;52.368;4.940;2023-06-10T08:02:04;35.00;85.70
40255;DHT22;25973;52.368;4.940;2023-06-10T08:04:30;34.70;86.50
40255;DHT22;25973;52.368;4.940;2023-06-10T08:06:56;35.00;86.00
40255;DHT22;25973;52.368;4.940;2023-06-10T08:09:22;34.90;85.30
40255;DHT22;25973;52.368;4.940;2023-06-10T08:11:48;34.60;86.30
40255;DHT22;25973;52.368;4.940;2023-06-10T08:14:14;34.70;85.80
40255;DHT22;25973;52.368;4.940;2023-06-10T08:16:40;34.40;85.90
40255;DHT22;25973;52.368;4.940;2023-06-10T08:19:06;34.40;85.60
40255;DHT22;25973;52.368;4.940;2023-06-10T08:21:34;33.60;87.20
40255;DHT22;25973;52.368;4.940;2023-06-10T08:24:00;34.30;87.10
40255;DHT22;25973;52.368;4.940;2023-06-10T08:26:25;34.20;86.50
40255;DHT22;25973;52.368;4.940;2023-06-10T08:28:51;33.60;87.80
40255;DHT22;25973;52.368;4.940;2023-06-10T08:31:17;33.60;88.00
40255;DHT22;25973;52.368;4.940;2023-06-10T08:33:42;34.10;87.30
40255;DHT22;25973;52.368;4.940;2023-06-10T08:36:08;34.40;87.00
40255;DHT22;25973;52.368;4.940;2023-06-10T08:38:33;34.70;85.60
40255;DHT22;25973;52.368;4.940;2023-06-10T08:41:00;35.00;85.90
40255;DHT22;25973;52.368;4.940;2023-06-10T08:44:32;35.60;84.30
40255;DHT22;25973;52.368;4.940;2023-06-10T08:46:29;35.90;84.40
40255;DHT22;25973;52.368;4.940;2023-06-10T08:48:59;35.10;84.60
40255;DHT22;25973;52.368;4.940;2023-06-10T08:51:27;35.20;86.10
40255;DHT22;25973;52.368;4.940;2023-06-10T08:54:09;35.30;84.60
40255;DHT22;25973;52.368;4.940;2023-06-10T08:56:39;35.10;85.20
40255;DHT22;25973;52.368;4.940;2023-06-10T08:59:05;35.60;84.70
40255;DHT22;25973;52.368;4.940;2023-06-10T09:01:31;35.70;84.30
40255;DHT22;25973;52.368;4.940;2023-06-10T09:03:58;35.80;84.50
40255;DHT22;25973;52.368;4.940;2023-06-10T09:06:25;35.40;83.60
40255;DHT22;25973;52.368;4.940;2023-06-10T09:08:51;35.20;84.10
40255;DHT22;25973;52.368;4.940;2023-06-10T09:11:17;34.50;83.70
40255;DHT22;25973;52.368;4.940;2023-06-10T09:13:42;34.50;84.80
40255;DHT22;25973;52.368;4.940;2023-06-10T09:16:08;34.60;84.70
40255;DHT22;25973;52.368;4.940;2023-06-10T09:18:34;35.10;84.90
40255;DHT22;25973;52.368;4.940;2023-06-10T09:21:00;35.60;84.60
40255;DHT22;25973;52.368;4.940;2023-06-10T09:23:26;35.60;82.80
40255;DHT22;25973;52.368;4.940;2023-06-10T09:25:57;35.10;84.50
40255;DHT22;25973;52.368;4.940;2023-06-10T09:28:26;35.60;84.70
40255;DHT22;25973;52.368;4.940;2023-06-10T09:31:05;35.00;85.10
40255;DHT22;25973;52.368;4.940;2023-06-10T09:33:32;34.70;85.30
40255;DHT22;25973;52.368;4.940;2023-06-10T09:36:01;34.40;86.50
40255;DHT22;25973;52.368;4.940;2023-06-10T09:38:31;34.10;86.30
40255;DHT22;25973;52.368;4.940;2023-06-10T09:40:57;34.00;86.90
40255;DHT22;25973;52.368;4.940;2023-06-10T09:43:40;33.30;87.60
40255;DHT22;25973;52.368;4.940;2023-06-10T09:46:08;32.70;89.10
40255;DHT22;25973;52.368;4.940;2023-06-10T09:48:42;32.30;89.80
40255;DHT22;25973;52.368;4.940;2023-06-10T09:51:12;31.70;89.40
40255;DHT22;25973;52.368;4.940;2023-06-10T09:53:38;31.60;90.20
40255;DHT22;25973;52.368;4.940;2023-06-10T09:56:04;31.10;90.30
40255;DHT22;25973;52.368;4.940;2023-06-10T09:58:37;30.90;90.90
40255;DHT22;25973;52.368;4.940;2023-06-10T10:01:10;30.80;90.50
40255;DHT22;25973;52.368;4.940;2023-06-10T10:03:51;31.00;90.50
40255;DHT22;25973;52.368;4.940;2023-06-10T10:06:17;30.80;90.40
40255;DHT22;25973;52.368;4.940;2023-06-10T10:08:47;30.50;90.40
40255;DHT22;25973;52.368;4.940;2023-06-10T10:11:14;30.60;90.70
40255;DHT22;25973;52.368;4.940;2023-06-10T10:13:41;30.70;91.10
40255;DHT22;25973;52.368;4.940;2023-06-10T10:16:11;31.00;90.80
40255;DHT22;25973;52.368;4.940;2023-06-10T10:18:40;31.10;90.90
40255;DHT22;25973;52.368;4.940;2023-06-10T10:21:11;31.30;90.80
40255;DHT22;25973;52.368;4.940;2023-06-10T10:24:12;31.60;90.20
40255;DHT22;25973;52.368;4.940;2023-06-10T10:26:41;31.80;90.40
40255;DHT22;25973;52.368;4.940;2023-06-10T10:29:11;31.80;90.00
40255;DHT22;25973;52.368;4.940;2023-06-10T10:31:42;31.90;90.10
40255;DHT22;25973;52.368;4.940;2023-06-10T10:34:15;32.00;89.90
40255;DHT22;25973;52.368;4.940;2023-06-10T10:36:42;31.80;89.20
40255;DHT22;25973;52.368;4.940;2023-06-10T10:39:08;31.50;90.00
40255;DHT22;25973;52.368;4.940;2023-06-10T10:41:36;31.30;90.10
40255;DHT22;25973;52.368;4.940;2023-06-10T10:44:03;31.30;90.00
40255;DHT22;25973;52.368;4.940;2023-06-10T10:46:42;31.10;90.10
40255;DHT22;25973;52.368;4.940;2023-06-10T10:49:09;31.00;90.10
40255;DHT22;25973;52.368;4.940;2023-06-10T10:51:35;30.80;90.20
40255;DHT22;25973;52.368;4.940;2023-06-10T10:54:12;30.50;90.40
40255;DHT22;25973;52.368;4.940;2023-06-10T10:56:38;30.50;90.70
40255;DHT22;25973;52.368;4.940;2023-06-10T10:59:04;30.30;90.60
40255;DHT22;25973;52.368;4.940;2023-06-10T11:01:40;30.20;90.90
40255;DHT22;25973;52.368;4.940;2023-06-10T11:04:08;29.80;91.10
40255;DHT22;25973;52.368;4.940;2023-06-10T11:06:34;29.80;91.10
40255;DHT22;25973;52.368;4.940;2023-06-10T11:09:00;29.60;91.40
40255;DHT22;25973;52.368;4.940;2023-06-10T11:11:27;29.50;91.60
40255;DHT22;25973;52.368;4.940;2023-06-10T11:16:28;29.50;91.70
40255;DHT22;25973;52.368;4.940;2023-06-10T11:18:54;29.40;91.20
40255;DHT22;25973;52.368;4.940;2023-06-10T11:21:20;29.30;92.00
40255;DHT22;25973;52.368;4.940;2023-06-10T11:23:48;29.30;91.60
40255;DHT22;25973;52.368;4.940;2023-06-10T11:26:44;29.30;92.00
40255;DHT22;25973;52.368;4.940;2023-06-10T11:29:10;29.20;91.70
40255;DHT22;25973;52.368;4.940;2023-06-10T11:31:43;29.20;91.80
40255;DHT22;25973;52.368;4.940;2023-06-10T11:34:10;29.10;91.80
40255;DHT22;25973;52.368;4.940;2023-06-10T11:36:38;29.10;91.80
40255;DHT22;25973;52.368;4.940;2023-06-10T11:39:06;29.20;91.80
40255;DHT22;25973;52.368;4.940;2023-06-10T11:41:33;29.10;91.70
40255;DHT22;25973;52.368;4.940;2023-06-10T11:44:14;29.00;91.50
40255;DHT22;25973;52.368;4.940;2023-06-10T11:46:40;29.00;91.70
40255;DHT22;25973;52.368;4.940;2023-06-10T11:49:08;29.00;91.50
40255;DHT22;25973;52.368;4.940;2023-06-10T11:51:38;29.10;92.10
40255;DHT22;25973;52.368;4.940;2023-06-10T11:54:08;28.90;92.00
40255;DHT22;25973;52.368;4.940;2023-06-10T11:56:34;28.70;92.30
40255;DHT22;25973;52.368;4.940;2023-06-10T11:59:02;28.70;92.00
40255;DHT22;25973;52.368;4.940;2023-06-10T12:01:30;28.50;92.10
40255;DHT22;25973;52.368;4.940;2023-06-10T12:06:25;28.30;92.10
40255;DHT22;25973;52.368;4.940;2023-06-10T12:08:51;28.30;91.90
40255;DHT22;25973;52.368;4.940;2023-06-10T12:11:16;28.30;92.00
40255;DHT22;25973;52.368;4.940;2023-06-10T12:13:46;28.20;92.20
40255;DHT22;25973;52.368;4.940;2023-06-10T12:16:14;28.30;92.70
40255;DHT22;25973;52.368;4.940;2023-06-10T12:18:39;28.20;92.70
40255;DHT22;25973;52.368;4.940;2023-06-10T12:21:16;28.20;93.00
40255;DHT22;25973;52.368;4.940;2023-06-10T12:24:09;28.20;93.10
40255;DHT22;25973;52.368;4.940;2023-06-10T12:26:36;28.10;93.20
40255;DHT22;25973;52.368;4.940;2023-06-10T12:29:14;28.10;92.80
40255;DHT22;25973;52.368;4.940;2023-06-10T12:32:00;28.10;93.00
40255;DHT22;25973;52.368;4.940;2023-06-10T12:37:04;27.90;92.40
40255;DHT22;25973;52.368;4.940;2023-06-10T12:39:31;27.70;92.60
40255;DHT22;25973;52.368;4.940;2023-06-10T12:41:57;27.60;92.90
40255;DHT22;25973;52.368;4.940;2023-06-10T12:44:32;27.60;93.20
40255;DHT22;25973;52.368;4.940;2023-06-10T12:47:01;27.60;93.40
40255;DHT22;25973;52.368;4.940;2023-06-10T12:49:27;27.60;92.70
40255;DHT22;25973;52.368;4.940;2023-06-10T12:51:52;27.50;93.20
40255;DHT22;25973;52.368;4.940;2023-06-10T12:54:18;27.50;93.30
40255;DHT22;25973;52.368;4.940;2023-06-10T12:56:44;27.50;93.70
40255;DHT22;25973;52.368;4.940;2023-06-10T12:59:10;27.40;93.50
40255;DHT22;25973;52.368;4.940;2023-06-10T13:01:37;27.40;94.00
40255;DHT22;25973;52.368;4.940;2023-06-10T13:04:05;27.30;93.80
40255;DHT22;25973;52.368;4.940;2023-06-10T13:06:31;27.40;93.60
40255;DHT22;25973;52.368;4.940;2023-06-10T13:08:59;27.40;93.50
40255;DHT22;25973;52.368;4.940;2023-06-10T13:11:24;27.30;93.60
40255;DHT22;25973;52.368;4.940;2023-06-10T13:13:51;27.20;93.40
40255;DHT22;25973;52.368;4.940;2023-06-10T13:16:16;27.20;93.50
40255;DHT22;25973;52.368;4.940;2023-06-10T13:18:42;27.20;93.70
40255;DHT22;25973;52.368;4.940;2023-06-10T13:21:08;27.20;93.40
40255;DHT22;25973;52.368;4.940;2023-06-10T13:23:33;27.20;93.30
40255;DHT22;25973;52.368;4.940;2023-06-10T13:25:59;27.20;93.40
40255;DHT22;25973;52.368;4.940;2023-06-10T13:28:25;27.20;93.70
40255;DHT22;25973;52.368;4.940;2023-06-10T13:30:51;27.10;93.10
40255;DHT22;25973;52.368;4.940;2023-06-10T13:33:16;27.10;93.00
40255;DHT22;25973;52.368;4.940;2023-06-10T13:35:42;27.10;93.30
40255;DHT22;25973;52.368;4.940;2023-06-10T13:38:07;27.10;93.30
40255;DHT22;25973;52.368;4.940;2023-06-10T13:40:33;27.10;93.40
40255;DHT22;25973;52.368;4.940;2023-06-10T13:42:59;27.00;93.20
40255;DHT22;25973;52.368;4.940;2023-06-10T13:45:25;27.00;93.50
40255;DHT22;25973;52.368;4.940;2023-06-10T13:47:50;27.00;93.30
40255;DHT22;25973;52.368;4.940;2023-06-10T13:50:16;27.10;93.20
40255;DHT22;25973;52.368;4.940;2023-06-10T13:52:42;27.10;93.10
40255;DHT22;25973;52.368;4.940;2023-06-10T13:55:08;27.00;93.30
40255;DHT22;25973;52.368;4.940;2023-06-10T13:57:34;27.00;93.30
40255;DHT22;25973;52.368;4.940;2023-06-10T13:59:59;27.10;92.80
40255;DHT22;25973;52.368;4.940;2023-06-10T14:02:25;27.10;92.90
40255;DHT22;25973;52.368;4.940;2023-06-10T14:04:50;27.00;93.10
40255;DHT22;25973;52.368;4.940;2023-06-10T14:07:16;26.90;92.80
40255;DHT22;25973;52.368;4.940;2023-06-10T14:09:42;26.90;92.80
40255;DHT22;25973;52.368;4.940;2023-06-10T14:12:09;26.90;92.80
40255;DHT22;25973;52.368;4.940;2023-06-10T14:14:34;26.90;92.70
40255;DHT22;25973;52.368;4.940;2023-06-10T14:17:00;26.90;92.60
40255;DHT22;25973;52.368;4.940;2023-06-10T14:19:25;26.90;92.50
40255;DHT22;25973;52.368;4.940;2023-06-10T14:21:51;26.80;92.40
40255;DHT22;25973;52.368;4.940;2023-06-10T14:24:18;26.90;91.90
40255;DHT22;25973;52.368;4.940;2023-06-10T14:26:43;26.80;91.70
40255;DHT22;25973;52.368;4.940;2023-06-10T14:29:09;26.80;91.80
40255;DHT22;25973;52.368;4.940;2023-06-10T14:31:35;26.80;91.80
40255;DHT22;25973;52.368;4.940;2023-06-10T14:34:01;26.80;92.00
40255;DHT22;25973;52.368;4.940;2023-06-10T14:36:26;26.90;90.90
40255;DHT22;25973;52.368;4.940;2023-06-10T14:38:52;26.90;90.90
40255;DHT22;25973;52.368;4.940;2023-06-10T14:41:17;26.80;91.00
40255;DHT22;25973;52.368;4.940;2023-06-10T14:43:43;26.80;90.90
40255;DHT22;25973;52.368;4.940;2023-06-10T14:46:08;26.80;91.40
40255;DHT22;25973;52.368;4.940;2023-06-10T14:48:34;26.80;91.10
40255;DHT22;25973;52.368;4.940;2023-06-10T14:51:00;26.80;91.00
40255;DHT22;25973;52.368;4.940;2023-06-10T14:53:26;26.80;91.40
40255;DHT22;25973;52.368;4.940;2023-06-10T14:55:51;26.80;91.00
40255;DHT22;25973;52.368;4.940;2023-06-10T14:58:17;26.80;91.20
40255;DHT22;25973;52.368;4.940;2023-06-10T15:00:42;26.80;91.00
40255;DHT22;25973;52.368;4.940;2023-06-10T15:03:08;26.80;90.30
40255;DHT22;25973;52.368;4.940;2023-06-10T15:05:33;26.80;90.70
40255;DHT22;25973;52.368;4.940;2023-06-10T15:08:00;26.80;90.70
40255;DHT22;25973;52.368;4.940;2023-06-10T15:10:25;26.80;90.10
40255;DHT22;25973;52.368;4.940;2023-06-10T15:12:51;26.80;90.20
40255;DHT22;25973;52.368;4.940;2023-06-10T15:15:24;26.80;89.90
40255;DHT22;25973;52.368;4.940;2023-06-10T15:17:51;26.80;90.00
40255;DHT22;25973;52.368;4.940;2023-06-10T15:20:16;26.80;89.20
40255;DHT22;25973;52.368;4.940;2023-06-10T15:22:42;26.90;89.70
40255;DHT22;25973;52.368;4.940;2023-06-10T15:25:08;26.90;89.00
40255;DHT22;25973;52.368;4.940;2023-06-10T15:27:33;26.90;89.10
40255;DHT22;25973;52.368;4.940;2023-06-10T15:29:59;26.90;89.20
40255;DHT22;25973;52.368;4.940;2023-06-10T15:32:24;26.90;88.60
40255;DHT22;25973;52.368;4.940;2023-06-10T15:34:50;26.80;87.40
40255;DHT22;25973;52.368;4.940;2023-06-10T15:37:18;26.90;88.10
40255;DHT22;25973;52.368;4.940;2023-06-10T15:39:44;26.90;87.60